Warning: Javascript must be enabled to use all the features on this page!


Page Loading - Please Wait...

Click to hideNews Bulletins

Peak Streamflow for the Nation

USGS 07060500 White River at Calico Rock, AR

Izard County, Arkansas
Hydrologic Unit Code 11010004
Latitude  36°07'00", Longitude  92°08'35" NAD83
Drainage area 9,980  square miles
Gage datum 316.38 feet above NGVD29
Output formats
Table
Graph
Tab-separated file
peakfq (watstore) format
Reselect output format
Water
Year
Date Gage
Height
(feet)
Stream-
flow
(cfs)
1905 1905-08-01 32.00 146,000
1906 1906-03-27 35.00 166,000
1907 1907-05-07 43.50 239,000
1908 1908-05-15 31.60 143,000
1909 1909-03-09 23.00 89,000
1910 1910-06-10 15.30 45,800
1911 1911-08-15 27.60 117,000
1912 1912-04-27 28.70 123,000
1913 1913-01-24 16.60 52,600
1914 1914-04-29 20.60 74,600
1915 1915-08-21 50.50 318,000
1916 1916-01-31 52.90 350,000
1917 1917-04-02 25.20 102,000
1918 1918-05-12 37.00 182,000
1919 1919-06-03 20.00 71,300
1920 1920-03-26 32.60 150,000
1921 1921-04-27 37.20 183,000
1922 1922-04-11 16.60 52,600
1923 1923-02-02 29.30 127,000
1924 1924-06-12 28.00 119,000
1925 1925-04-28 22.50 86,000
1926 1925-10-09 19.00 65,800
1927 1927-04-15 51.50 332,000
1928 1927-12-14 41.50 220,000
1929 1929-01-25 29.20 126,000
1930 1930-05-11 24.20 96,200
1931 1931-02-09 19.00 65,800
1932 1932-01-23 18.80 64,700
1933 1933-05-16 38.40 193,000
1934 1934-03-27 15.20 45,300
1935 1935-03-12 43.80 242,000
1936 1936-09-29 15.50 46,800
1937 1937-01-15 29.40 128,000
1938 1938-02-19 44.50 250,000
1939 1939-04-17 32.50 149,000
1940 1940-04-12 24.05 95,000
1941 1941-04-22 27.85 118,0005
1942 1941-11-01 28.40 122,0005
1943 1943-05-12 47.50 269,0005
1944 1944-02-29 16.23 48,9005
1945 1945-04-16 49.84 310,0005
1946 1946-05-16 25.61 110,0005
1947 1946-12-13 25.94 112,0005
1948 1948-06-20 18.49 65,4005
1949 1949-01-25 38.14 190,0005
1950 1950-05-13 39.25 211,0005
1951 1951-02-21 25.56 110,0005
1952 1952-03-11 18.66 66,6006
1953 1953-03-18 15.07 46,9006
1954 1954-05-03 14.25 42,4006
1955 1955-03-21 15.90 51,1006
1956 1956-02-18 12.27 33,4006
1957 1957-04-04 25.05 106,0006
1958 1958-05-10 13.73 40,0006
1959 1958-11-17 13.52 39,0006
1960 1960-05-21 17.26 58,6006
1961 1961-05-06 23.97 99,5006
1962 1962-01-23 10.30 24,8006
1963 1963-06-08 8.20 16,6006
1964 1964-03-10 15.97 51,6006
1965 1965-05-11 10.76 24,8006
1966 1966-02-10 23.30 92,4006
1967 1967-07-11 10.03 22,5006
1968 1968-03-21 21.14 79,1006
1969 1969-01-30 23.35 92,7006
1970 1970-04-20 18.25 62,2006
1971 1971-01-16 11.69 30,0006
1972 1971-12-11 25.25 99,8006
1973 1973-04-23 27.82 109,0006
1974 1973-11-25 29.69 121,0006
1975 1975-03-28 18.51 59,7006
1976 1976-06-25 11.88 30,5006
1977 1977-03-29 19.97 66,7006
1978 1978-03-25 16.85 52,1006
1979 1979-04-12 14.76 42,7006
1980 1980-02-18 10.38 24,5006
1981 1981-08-18 11.02 27,1006
1982 1982-02-01 19.00 62,0006
1983 1982-12-04 41.14 201,0006
1984 1984-05-08 15.66 46,7006
1985 1985-02-24 27.22 105,0006
1986 1986-04-09 15.32 45,2006
1987 1987-03-26 12.86 35,9006
1988 1987-12-26 18.44 60,8006
1989 1989-02-15 17.92 57,0006
1990 1990-05-04 26.97 104,0006
1991 1991-04-15 14.13 40,0006
1992 1991-10-30 16.45 50,3006
1993 1993-01-05 18.98 61,9006
1994 1994-02-23 15.73 48,7006
1995 1994-11-06 19.90 66,3006
1996 1996-09-27 18.34 59,0006
1997 1996-11-08 21.20 72,6006
1998 1998-03-20 15.33 46,3006
1999 1999-04-12 12.25 34,2006
2000 2000-06-18 14.66 41,3006
2001 2001-02-17 15.98 48,6006
2002 2002-03-20 22.54 82,6006
2003 2003-05-18 10.88 25,7006
2004 2004-04-25 31.64 138,0006
2005 2005-01-05 14.19 42,0006
2006 2005-12-06 10.60 24,7006
2007 2006-12-01 22.57 81,5006
2008 2008-04-11 40.27 202,0006
2009 2009-02-12 13.17 34,8006
2010 2009-10-31 17.07 52,5006
2011 2011-04-26 29.28 130,0006
2012 2012-03-21 18.41 62,6006
2013 2013-08-11 10.43 24,4006
2014 2014-03-17 15.51 47,1006
2015 2015-05-12 19.95 71,9006
2016 2015-12-29 34.20 165,0006
2017 2017-05-01 32.65 154,0006
2018 2018-03-30 15.21 47,0006
2019 2019-02-12 15.96 50,7006
2020 2020-01-12 18.34 63,1006
2021 2021-04-30 20.92 77,4006
?
  Peak Streamflow Qualification Codes.